createdAt,value
2019-06-01T00:01:27.611Z,7.55
2019-06-01T00:05:31.061Z,6.17
2019-06-01T00:09:34.852Z,6.20
2019-06-01T00:13:39.431Z,6.03
2019-06-01T00:17:43.897Z,6.60
2019-06-01T00:21:47.489Z,5.53
2019-06-01T00:25:50.932Z,6.15
2019-06-01T00:29:54.660Z,6.25
2019-06-01T00:33:58.138Z,6.10
2019-06-01T00:38:01.936Z,5.83
2019-06-01T00:42:05.385Z,5.75
2019-06-01T00:46:08.873Z,6.50
2019-06-01T00:50:12.967Z,7.25
2019-06-01T00:54:16.499Z,7.00
2019-06-01T00:58:20.002Z,7.83
2019-06-01T01:02:23.499Z,7.80
2019-06-01T01:06:26.994Z,8.25
2019-06-01T01:10:30.454Z,8.08
2019-06-01T01:14:34.195Z,10.58
2019-06-01T01:18:37.695Z,8.60
2019-06-01T01:22:41.156Z,10.70
2019-06-01T01:26:44.598Z,9.87
2019-06-01T01:31:04.048Z,8.38
2019-06-01T01:34:53.886Z,6.70
2019-06-01T01:38:58.386Z,7.70
2019-06-01T01:43:02.310Z,7.62
2019-06-01T01:47:05.846Z,8.23
2019-06-01T01:51:09.319Z,8.73
2019-06-01T01:55:12.934Z,8.65
2019-06-01T01:59:16.661Z,8.25
2019-06-01T02:03:20.202Z,8.25
2019-06-01T02:07:23.903Z,7.70
2019-06-01T02:11:27.412Z,8.03
2019-06-01T02:15:30.898Z,8.65
2019-06-01T02:19:36.531Z,8.80
2019-06-01T02:23:39.634Z,8.23
2019-06-01T02:27:43.103Z,8.25
2019-06-01T02:31:46.576Z,8.95
2019-06-01T02:35:50.376Z,8.68
2019-06-01T02:39:54.340Z,7.87
2019-06-01T02:43:59.145Z,7.83
2019-06-01T02:48:03.813Z,8.53
2019-06-01T02:52:07.885Z,8.73
2019-06-01T02:56:11.609Z,8.33
2019-06-01T03:00:16.887Z,8.25
2019-06-01T03:04:20.420Z,8.07
2019-06-01T03:08:24.926Z,7.83
2019-06-01T03:12:31.563Z,6.45
2019-06-01T03:16:40.243Z,7.53
2019-06-01T03:20:46.668Z,8.70
2019-06-01T03:24:53.250Z,7.20
2019-06-01T03:29:00.114Z,7.58
2019-06-01T03:33:05.601Z,10.65
2019-06-01T03:37:09.235Z,10.20
2019-06-01T03:41:12.783Z,10.70
2019-06-01T03:45:16.279Z,10.98
2019-06-01T03:49:19.752Z,11.10
2019-06-01T03:53:23.215Z,9.85
2019-06-01T03:57:26.673Z,10.23
2019-06-01T04:01:30.456Z,8.83
2019-06-01T04:05:34.054Z,8.53
2019-06-01T04:09:37.786Z,10.93
2019-06-01T04:13:41.247Z,10.00
2019-06-01T04:17:45.211Z,11.45
2019-06-01T04:21:48.674Z,8.90
2019-06-01T04:25:52.397Z,8.60
2019-06-01T04:29:55.946Z,9.45
2019-06-01T04:33:59.665Z,9.83
2019-06-01T04:38:03.636Z,10.72
2019-06-01T04:42:07.711Z,9.58
2019-06-01T04:46:12.359Z,10.43
2019-06-01T04:50:16.348Z,11.60
2019-06-01T04:54:19.826Z,11.63
2019-06-01T04:58:23.275Z,12.47
2019-06-01T05:02:26.763Z,13.58
2019-06-01T05:06:30.244Z,12.75
2019-06-01T05:10:33.976Z,12.30
2019-06-01T05:14:37.469Z,11.25
2019-06-01T05:18:40.940Z,11.50
2019-06-01T05:22:44.418Z,12.50
2019-06-01T05:26:48.159Z,13.38
2019-06-01T05:30:51.658Z,11.83
2019-06-01T05:34:55.177Z,11.40
2019-06-01T05:38:58.916Z,12.58
2019-06-01T05:43:02.651Z,12.07
2019-06-01T05:47:06.120Z,11.95
2019-06-01T05:51:12.553Z,11.57
2019-06-01T05:55:16.661Z,11.53
2019-06-01T05:59:20.308Z,11.53
2019-06-01T06:03:39.568Z,10.63
2019-06-01T06:07:28.995Z,11.03
2019-06-01T06:11:32.463Z,10.15
2019-06-01T06:15:35.922Z,11.00
2019-06-01T06:19:39.399Z,10.25
2019-06-01T06:23:42.882Z,10.13
2019-06-01T06:27:46.340Z,12.80
2019-06-01T06:31:49.805Z,10.95
2019-06-01T06:35:53.259Z,10.13
2019-06-01T06:39:56.723Z,10.55
2019-06-01T06:44:00.210Z,10.20
2019-06-01T06:48:03.990Z,10.63
2019-06-01T06:52:07.467Z,10.25
2019-06-01T06:56:11.005Z,10.80
2019-06-01T07:00:14.914Z,11.48
2019-06-01T07:04:19.297Z,11.10
2019-06-01T07:08:23.919Z,11.95
2019-06-01T07:12:27.541Z,13.53
2019-06-01T07:16:31.888Z,12.15
2019-06-01T07:20:35.901Z,12.23
2019-06-01T07:24:39.451Z,13.00
2019-06-01T07:28:44.656Z,13.58
2019-06-01T07:32:48.314Z,13.07
2019-06-01T07:36:51.856Z,12.23
2019-06-01T07:40:55.345Z,12.23
2019-06-01T07:44:58.822Z,13.18
2019-06-01T07:49:02.351Z,11.97
2019-06-01T07:53:05.835Z,11.00
2019-06-01T07:57:09.539Z,8.70
2019-06-01T08:01:12.999Z,9.98
2019-06-01T08:05:16.798Z,10.08
2019-06-01T08:09:22.145Z,8.08
2019-06-01T08:13:29.296Z,7.53
2019-06-01T08:17:32.168Z,9.37
2019-06-01T08:21:35.740Z,7.73
2019-06-01T08:25:39.476Z,7.28
2019-06-01T08:29:42.935Z,7.42
2019-06-01T08:33:46.655Z,8.20
2019-06-01T08:37:50.104Z,7.67
2019-06-01T08:41:53.558Z,7.50
2019-06-01T08:45:57.015Z,6.25
2019-06-01T08:50:00.772Z,6.30
2019-06-01T08:54:05.084Z,6.85
2019-06-01T08:58:08.546Z,6.25
2019-06-01T09:02:12.304Z,6.23
2019-06-01T09:06:16.011Z,6.42
2019-06-01T09:10:19.473Z,5.57
2019-06-01T09:14:22.950Z,5.90
2019-06-01T09:18:27.533Z,5.30
2019-06-01T09:22:31.641Z,6.08
2019-06-01T09:26:36.120Z,5.03
2019-06-01T09:30:40.022Z,6.33
2019-06-01T09:34:43.490Z,5.42
2019-06-01T09:38:46.946Z,5.17
2019-06-01T09:42:50.407Z,5.25
2019-06-01T09:46:54.182Z,4.45
2019-06-01T09:50:57.634Z,4.75
2019-06-01T09:55:01.171Z,4.53
2019-06-01T09:59:05.022Z,5.05
2019-06-01T10:03:08.507Z,5.28
2019-06-01T10:07:12.231Z,4.50
2019-06-01T10:11:15.678Z,4.50
2019-06-01T10:15:19.409Z,5.10
2019-06-01T10:19:22.868Z,5.33
2019-06-01T10:23:26.649Z,4.42
2019-06-01T10:27:30.309Z,4.33
2019-06-01T10:31:34.683Z,4.53
2019-06-01T10:35:38.976Z,4.47
2019-06-01T10:39:42.770Z,4.22
2019-06-01T10:43:46.235Z,4.33
2019-06-01T10:47:49.832Z,4.20
2019-06-01T10:51:53.284Z,4.80
2019-06-01T10:55:56.891Z,4.03
2019-06-01T11:00:00.452Z,4.58
2019-06-01T11:04:03.902Z,3.22
2019-06-01T11:08:07.456Z,3.40
2019-06-01T11:12:10.911Z,3.72
2019-06-01T11:16:14.370Z,3.65
2019-06-01T11:20:18.340Z,4.08
2019-06-01T11:24:21.779Z,3.40
2019-06-01T11:28:25.301Z,3.65
2019-06-01T11:32:28.810Z,3.60
2019-06-01T11:36:32.275Z,3.70
2019-06-01T11:40:36.462Z,3.23
2019-06-01T11:44:40.719Z,3.67
2019-06-01T11:48:45.386Z,3.83
2019-06-01T11:52:49.196Z,3.10
2019-06-01T11:56:52.656Z,3.67
2019-06-01T12:00:56.201Z,3.95
2019-06-01T12:04:59.893Z,3.35
2019-06-01T12:09:04.889Z,3.47
2019-06-01T12:13:08.344Z,3.20
2019-06-01T12:17:11.815Z,2.85
2019-06-01T12:21:15.286Z,3.20
2019-06-01T12:25:19.054Z,3.02
2019-06-01T12:29:22.783Z,2.92
2019-06-01T12:33:26.547Z,2.87
2019-06-01T12:37:45.429Z,3.65
2019-06-01T12:41:35.179Z,2.93
2019-06-01T12:45:39.627Z,2.80
2019-06-01T12:49:44.083Z,2.47
2019-06-01T12:53:48.583Z,2.45
2019-06-01T12:57:52.087Z,2.98
2019-06-01T13:01:58.460Z,2.65
2019-06-01T13:06:01.943Z,2.33
2019-06-01T13:10:06.790Z,2.58
2019-06-01T13:14:10.591Z,2.43
2019-06-01T13:18:14.049Z,2.47
2019-06-01T13:22:17.504Z,2.92
2019-06-01T13:26:21.210Z,3.45
2019-06-01T13:30:24.658Z,2.52
2019-06-01T13:34:28.197Z,2.40
2019-06-01T13:38:31.920Z,2.47
2019-06-01T13:42:35.435Z,2.35
2019-06-01T13:46:38.923Z,2.27
2019-06-01T13:50:43.462Z,2.58
2019-06-01T13:54:48.102Z,2.67
2019-06-01T13:58:52.410Z,2.10
2019-06-01T14:02:57.600Z,2.55
2019-06-01T14:07:01.288Z,3.08
2019-06-01T14:11:04.793Z,2.10
2019-06-01T14:15:09.678Z,1.90
2019-06-01T14:19:13.406Z,2.33
2019-06-01T14:23:16.864Z,2.20
2019-06-01T14:27:20.401Z,1.90
2019-06-01T14:31:24.111Z,1.83
2019-06-01T14:35:27.942Z,1.98
2019-06-01T14:39:31.659Z,2.10
2019-06-01T14:43:35.472Z,2.08
2019-06-01T14:47:39.194Z,1.70
2019-06-01T14:51:42.650Z,2.05
2019-06-01T14:55:46.098Z,1.87
2019-06-01T14:59:50.383Z,2.10
2019-06-01T15:03:54.518Z,2.00
2019-06-01T15:07:59.123Z,2.40
2019-06-01T15:12:02.739Z,2.30
2019-06-01T15:16:06.492Z,2.30
2019-06-01T15:20:10.546Z,3.00
2019-06-01T15:24:14.330Z,2.40
2019-06-01T15:28:17.795Z,2.40
2019-06-01T15:32:21.505Z,2.30
2019-06-01T15:36:24.951Z,2.67
2019-06-01T15:40:28.671Z,2.35
2019-06-01T15:44:32.388Z,2.23
2019-06-01T15:48:35.852Z,2.13
2019-06-01T15:52:39.320Z,2.13
2019-06-01T15:56:43.050Z,2.33
2019-06-01T16:00:46.500Z,2.53
2019-06-01T16:04:49.972Z,2.17
2019-06-01T16:08:53.551Z,2.83
2019-06-01T16:12:57.470Z,2.08
2019-06-01T16:17:02.886Z,2.40
2019-06-01T16:21:06.734Z,2.10
2019-06-01T16:25:10.420Z,2.52
2019-06-01T16:29:14.186Z,2.02
2019-06-01T16:33:17.636Z,2.35
2019-06-01T16:37:21.326Z,2.72
2019-06-01T16:41:25.220Z,1.85
2019-06-01T16:45:28.927Z,1.90
2019-06-01T16:49:32.391Z,1.65
2019-06-01T16:53:35.871Z,2.15
2019-06-01T16:57:39.327Z,2.33
2019-06-01T17:01:42.950Z,2.23
2019-06-01T17:05:46.675Z,2.60
2019-06-01T17:09:50.490Z,2.50
2019-06-01T17:13:54.272Z,2.83
2019-06-01T17:18:02.934Z,2.10
2019-06-01T17:26:08.832Z,2.12
2019-06-01T17:30:12.488Z,2.43
2019-06-01T17:34:15.926Z,2.30
2019-06-01T17:38:19.370Z,2.15
2019-06-01T17:42:22.824Z,2.62
2019-06-01T17:46:26.284Z,2.50
2019-06-01T17:50:30.009Z,2.92
2019-06-01T17:54:33.761Z,2.70
2019-06-01T17:58:37.219Z,2.50
2019-06-01T18:02:40.652Z,2.62
2019-06-01T18:06:44.287Z,3.10
2019-06-01T18:10:54.439Z,3.30
2019-06-01T18:14:53.183Z,3.07
2019-06-01T18:18:56.916Z,3.60
2019-06-01T18:23:00.602Z,4.12
2019-06-01T18:27:04.404Z,4.05
2019-06-01T18:31:08.759Z,4.22
2019-06-01T18:35:13.405Z,3.87
2019-06-01T18:39:17.439Z,4.12
2019-06-01T18:43:21.289Z,3.67
2019-06-01T18:47:32.164Z,4.37
2019-06-01T18:51:30.275Z,3.60
2019-06-01T18:55:35.746Z,4.87
2019-06-01T18:59:39.475Z,4.40
2019-06-01T19:03:42.927Z,4.28
2019-06-01T19:07:46.479Z,4.60
2019-06-01T19:11:50.005Z,4.85
2019-06-01T19:15:53.462Z,4.53
2019-06-01T19:19:57.233Z,4.35
2019-06-01T19:24:01.017Z,4.83
2019-06-01T19:28:04.503Z,5.62
2019-06-01T19:32:08.776Z,4.92
2019-06-01T19:36:13.062Z,5.33
2019-06-01T19:40:19.627Z,4.42
2019-06-01T19:44:23.111Z,4.78
2019-06-01T19:48:26.716Z,4.40
2019-06-01T19:52:30.545Z,5.03
2019-06-01T19:56:34.413Z,4.47
2019-06-01T20:00:37.944Z,5.47
2019-06-01T20:04:41.409Z,4.72
2019-06-01T20:08:44.881Z,5.40
2019-06-01T20:12:48.340Z,5.00
2019-06-01T20:16:52.156Z,5.30
2019-06-01T20:20:55.738Z,4.58
2019-06-01T20:24:59.331Z,4.42
2019-06-01T20:29:03.153Z,5.30
2019-06-01T20:33:06.987Z,4.90
2019-06-01T20:37:11.788Z,4.75
2019-06-01T20:41:16.861Z,5.27
2019-06-01T20:45:20.910Z,4.65
2019-06-01T20:49:24.438Z,5.03
2019-06-01T20:53:27.939Z,4.50
2019-06-01T20:57:31.423Z,4.50
2019-06-01T21:01:34.941Z,4.80
2019-06-01T21:05:38.412Z,4.25
2019-06-01T21:09:42.711Z,5.17
2019-06-01T21:13:46.452Z,4.58
2019-06-01T21:17:50.473Z,4.83
2019-06-01T21:21:54.567Z,4.55
2019-06-01T21:25:58.368Z,4.85
2019-06-01T21:30:01.874Z,4.03
2019-06-01T21:34:05.755Z,4.70
2019-06-01T21:38:09.565Z,5.55
2019-06-01T21:42:13.295Z,5.10
2019-06-01T21:46:17.582Z,5.10
2019-06-01T21:50:22.258Z,4.53
2019-06-01T21:54:26.344Z,4.95
2019-06-01T21:58:29.932Z,4.65
2019-06-01T22:02:33.641Z,3.80
2019-06-01T22:06:37.106Z,5.10
2019-06-01T22:10:41.068Z,4.70
2019-06-01T22:14:44.802Z,5.42
2019-06-01T22:18:48.249Z,4.50
2019-06-01T22:22:51.957Z,4.85
2019-06-01T22:26:55.653Z,4.47
2019-06-01T22:30:59.383Z,4.33
2019-06-01T22:35:03.476Z,4.42
2019-06-01T22:39:08.639Z,4.55
2019-06-01T22:43:12.090Z,5.20
2019-06-01T22:47:15.876Z,4.75
2019-06-01T22:51:20.687Z,4.35
2019-06-01T22:55:26.226Z,4.67
2019-06-01T22:59:29.860Z,4.87
2019-06-01T23:03:33.682Z,4.92
2019-06-01T23:07:37.126Z,4.95
2019-06-01T23:11:40.587Z,4.97
2019-06-01T23:15:44.046Z,5.05
2019-06-01T23:19:47.752Z,4.73
2019-06-01T23:23:51.504Z,4.87
2019-06-01T23:27:54.965Z,5.22
2019-06-01T23:31:58.743Z,4.92
2019-06-01T23:36:02.584Z,5.33
2019-06-01T23:40:06.450Z,3.98
2019-06-01T23:44:12.233Z,5.20
2019-06-01T23:48:15.441Z,5.53
2019-06-01T23:52:19.192Z,4.83
2019-06-01T23:56:23.625Z,5.62
